sensor_id;sensor_type;location;lat;lon;timestamp;pressure;altitude;pressure_sealevel;temperature;humidity
43621;BME280;29213;50.770;7.298;2023-02-28T00:01:01;102095.22;;;-2.20;51.58
43621;BME280;29213;50.770;7.298;2023-02-28T00:03:26;102053.31;;;-2.46;51.36
43621;BME280;29213;50.770;7.298;2023-02-28T00:05:52;102165.69;;;-1.87;51.46
43621;BME280;29213;50.770;7.298;2023-02-28T00:08:17;102092.19;;;-2.38;51.56
43621;BME280;29213;50.770;7.298;2023-02-28T00:10:42;102126.50;;;-2.19;51.65
43621;BME280;29213;50.770;7.298;2023-02-28T00:13:08;102063.31;;;-2.63;51.59
43621;BME280;29213;50.770;7.298;2023-02-28T00:15:33;102179.78;;;-1.94;51.48
43621;BME280;29213;50.770;7.298;2023-02-28T00:17:59;101986.34;;;-3.12;51.78
43621;BME280;29213;50.770;7.298;2023-02-28T00:20:24;102129.38;;;-2.28;51.75
43621;BME280;29213;50.770;7.298;2023-02-28T00:22:52;102181.72;;;-2.01;51.67
43621;BME280;29213;50.770;7.298;2023-02-28T00:25:20;102183.63;;;-2.06;51.71
43621;BME280;29213;50.770;7.298;2023-02-28T00:27:47;102183.69;;;-2.09;51.93
43621;BME280;29213;50.770;7.298;2023-02-28T00:30:18;102188.13;;;-2.13;51.56
43621;BME280;29213;50.770;7.298;2023-02-28T00:32:44;102194.25;;;-2.14;51.47
43621;BME280;29213;50.770;7.298;2023-02-28T00:35:10;102129.16;;;-2.54;51.27
43621;BME280;29213;50.770;7.298;2023-02-28T00:37:36;102189.09;;;-2.17;51.53
43621;BME280;29213;50.770;7.298;2023-02-28T00:40:02;102172.97;;;-2.32;52.11
43621;BME280;29213;50.770;7.298;2023-02-28T00:42:29;102138.94;;;-2.62;52.16
43621;BME280;29213;50.770;7.298;2023-02-28T00:44:55;102005.22;;;-3.37;52.01
43621;BME280;29213;50.770;7.298;2023-02-28T00:47:20;102155.78;;;-2.41;52.15
43621;BME280;29213;50.770;7.298;2023-02-28T00:49:46;102125.97;;;-2.65;52.69
43621;BME280;29213;50.770;7.298;2023-02-28T00:52:11;102135.53;;;-2.65;52.37
43621;BME280;29213;50.770;7.298;2023-02-28T00:54:36;102169.81;;;-2.45;52.42
43621;BME280;29213;50.770;7.298;2023-02-28T00:57:02;102072.09;;;-3.01;52.28
43621;BME280;29213;50.770;7.298;2023-02-28T00:59:27;102188.72;;;-2.36;52.35
43621;BME280;29213;50.770;7.298;2023-02-28T01:01:53;102122.78;;;-2.76;52.59
43621;BME280;29213;50.770;7.298;2023-02-28T01:04:18;102068.00;;;-3.11;52.61
43621;BME280;29213;50.770;7.298;2023-02-28T01:06:44;102128.13;;;-2.83;52.26
43621;BME280;29213;50.770;7.298;2023-02-28T01:09:10;102178.78;;;-2.55;52.27
43621;BME280;29213;50.770;7.298;2023-02-28T01:11:35;102170.34;;;-2.67;52.32
43621;BME280;29213;50.770;7.298;2023-02-28T01:14:02;102109.44;;;-3.00;52.80
43621;BME280;29213;50.770;7.298;2023-02-28T01:16:27;102161.84;;;-2.75;52.31
43621;BME280;29213;50.770;7.298;2023-02-28T01:18:53;102152.41;;;-2.79;52.31
43621;BME280;29213;50.770;7.298;2023-02-28T01:21:20;102193.50;;;-2.53;52.41
43621;BME280;29213;50.770;7.298;2023-02-28T01:23:46;102189.19;;;-2.54;52.66
43621;BME280;29213;50.770;7.298;2023-02-28T01:26:15;102173.94;;;-2.71;52.61
43621;BME280;29213;50.770;7.298;2023-02-28T01:28:41;102190.19;;;-2.59;52.94
43621;BME280;29213;50.770;7.298;2023-02-28T01:31:08;102019.72;;;-3.63;52.95
43621;BME280;29213;50.770;7.298;2023-02-28T01:33:33;102172.41;;;-2.80;52.56
43621;BME280;29213;50.770;7.298;2023-02-28T01:36:00;102178.56;;;-2.82;52.69
43621;BME280;29213;50.770;7.298;2023-02-28T01:38:26;102176.72;;;-2.78;52.73
43621;BME280;29213;50.770;7.298;2023-02-28T01:40:52;102186.97;;;-2.71;52.32
43621;BME280;29213;50.770;7.298;2023-02-28T01:43:23;102185.28;;;-2.73;53.05
43621;BME280;29213;50.770;7.298;2023-02-28T01:45:50;102183.59;;;-2.74;53.17
43621;BME280;29213;50.770;7.298;2023-02-28T01:48:16;101971.31;;;-4.11;53.19
43621;BME280;29213;50.770;7.298;2023-02-28T01:50:43;102173.34;;;-2.82;52.93
43621;BME280;29213;50.770;7.298;2023-02-28T01:53:16;102099.81;;;-3.35;53.34
43621;BME280;29213;50.770;7.298;2023-02-28T01:55:47;102125.53;;;-3.19;52.64
43621;BME280;29213;50.770;7.298;2023-02-28T01:58:15;102105.94;;;-3.36;52.74
43621;BME280;29213;50.770;7.298;2023-02-28T02:00:41;102162.31;;;-2.94;52.79
43621;BME280;29213;50.770;7.298;2023-02-28T02:03:13;102056.19;;;-3.64;53.24
43621;BME280;29213;50.770;7.298;2023-02-28T02:05:40;102168.44;;;-2.96;53.22
43621;BME280;29213;50.770;7.298;2023-02-28T02:08:09;102069.97;;;-3.59;53.41
43621;BME280;29213;50.770;7.298;2023-02-28T02:10:41;102100.16;;;-3.50;53.80
43621;BME280;29213;50.770;7.298;2023-02-28T02:19:36;102152.59;;;-3.25;53.32
43621;BME280;29213;50.770;7.298;2023-02-28T02:30:33;102091.84;;;-3.66;53.51
43621;BME280;29213;50.770;7.298;2023-02-28T02:36:05;102127.19;;;-3.54;53.63
43621;BME280;29213;50.770;7.298;2023-02-28T02:38:38;102159.84;;;-3.38;53.81
43621;BME280;29213;50.770;7.298;2023-02-28T02:41:18;102110.19;;;-3.71;53.79
43621;BME280;29213;50.770;7.298;2023-02-28T02:43:48;102157.41;;;-3.45;54.03
43621;BME280;29213;50.770;7.298;2023-02-28T02:46:26;102160.06;;;-3.49;54.00
43621;BME280;29213;50.770;7.298;2023-02-28T02:48:55;102113.75;;;-3.77;54.40
43621;BME280;29213;50.770;7.298;2023-02-28T02:51:23;102154.13;;;-3.55;54.08
43621;BME280;29213;50.770;7.298;2023-02-28T02:56:32;102131.09;;;-3.76;54.24
43621;BME280;29213;50.770;7.298;2023-02-28T02:59:07;102161.97;;;-3.57;54.11
43621;BME280;29213;50.770;7.298;2023-02-28T03:01:34;102106.47;;;-4.00;53.91
43621;BME280;29213;50.770;7.298;2023-02-28T03:04:04;102162.94;;;-3.61;53.66
43621;BME280;29213;50.770;7.298;2023-02-28T03:06:31;102169.84;;;-3.60;53.87
43621;BME280;29213;50.770;7.298;2023-02-28T03:08:56;102065.19;;;-4.20;53.71
43621;BME280;29213;50.770;7.298;2023-02-28T03:11:21;102122.72;;;-3.89;53.84
43621;BME280;29213;50.770;7.298;2023-02-28T03:22:37;102159.56;;;-3.66;53.83
43621;BME280;29213;50.770;7.298;2023-02-28T03:25:22;102129.66;;;-3.89;53.96
43621;BME280;29213;50.770;7.298;2023-02-28T03:28:00;102153.56;;;-3.70;53.82
43621;BME280;29213;50.770;7.298;2023-02-28T03:33:47;102100.56;;;-4.10;53.92
43621;BME280;29213;50.770;7.298;2023-02-28T03:36:22;102149.38;;;-3.77;54.19
43621;BME280;29213;50.770;7.298;2023-02-28T03:38:59;102108.38;;;-4.11;54.41
43621;BME280;29213;50.770;7.298;2023-02-28T03:41:35;102100.69;;;-4.18;54.49
43621;BME280;29213;50.770;7.298;2023-02-28T03:44:11;102120.47;;;-4.07;54.41
43621;BME280;29213;50.770;7.298;2023-02-28T03:46:46;102115.28;;;-4.09;54.02
43621;BME280;29213;50.770;7.298;2023-02-28T03:49:19;102155.53;;;-3.81;53.86
43621;BME280;29213;50.770;7.298;2023-02-28T03:51:47;102094.69;;;-4.21;53.74
43621;BME280;29213;50.770;7.298;2023-02-28T03:54:17;102150.44;;;-3.86;53.68
43621;BME280;29213;50.770;7.298;2023-02-28T03:56:50;102155.59;;;-3.84;53.65
43621;BME280;29213;50.770;7.298;2023-02-28T04:01:47;102157.28;;;-3.82;54.28
43621;BME280;29213;50.770;7.298;2023-02-28T04:04:14;102158.13;;;-3.81;54.33
43621;BME280;29213;50.770;7.298;2023-02-28T04:06:40;102089.75;;;-4.34;54.25
43621;BME280;29213;50.770;7.298;2023-02-28T04:09:08;102119.63;;;-4.08;54.01
43621;BME280;29213;50.770;7.298;2023-02-28T04:11:38;102128.19;;;-4.03;54.18
43621;BME280;29213;50.770;7.298;2023-02-28T04:14:06;102162.59;;;-3.88;54.24
43621;BME280;29213;50.770;7.298;2023-02-28T04:16:33;102166.13;;;-3.91;54.00
43621;BME280;29213;50.770;7.298;2023-02-28T04:18:59;102148.16;;;-4.05;53.82
43621;BME280;29213;50.770;7.298;2023-02-28T04:21:29;102088.19;;;-4.43;54.07
43621;BME280;29213;50.770;7.298;2023-02-28T04:23:55;102169.63;;;-3.92;53.87
43621;BME280;29213;50.770;7.298;2023-02-28T04:26:20;102119.88;;;-4.22;53.83
43621;BME280;29213;50.770;7.298;2023-02-28T04:28:45;102108.75;;;-4.30;53.92
43621;BME280;29213;50.770;7.298;2023-02-28T04:31:11;102165.31;;;-3.94;53.84
43621;BME280;29213;50.770;7.298;2023-02-28T04:33:36;102145.59;;;-4.06;54.24
43621;BME280;29213;50.770;7.298;2023-02-28T04:36:05;102109.56;;;-4.28;54.13
43621;BME280;29213;50.770;7.298;2023-02-28T04:38:35;102169.78;;;-4.01;54.67
43621;BME280;29213;50.770;7.298;2023-02-28T04:41:01;102138.03;;;-4.20;54.43
43621;BME280;29213;50.770;7.298;2023-02-28T04:43:27;102163.00;;;-4.08;54.29
43621;BME280;29213;50.770;7.298;2023-02-28T04:45:53;102087.69;;;-4.63;54.28
43621;BME280;29213;50.770;7.298;2023-02-28T04:48:26;102084.28;;;-4.67;54.41
43621;BME280;29213;50.770;7.298;2023-02-28T04:50:52;102135.03;;;-4.46;54.76
43621;BME280;29213;50.770;7.298;2023-02-28T04:53:18;102172.75;;;-4.21;54.04
43621;BME280;29213;50.770;7.298;2023-02-28T04:55:44;102171.03;;;-4.21;54.40
43621;BME280;29213;50.770;7.298;2023-02-28T04:58:10;102142.69;;;-4.36;54.32
43621;BME280;29213;50.770;7.298;2023-02-28T05:00:35;101977.28;;;-5.43;54.19
43621;BME280;29213;50.770;7.298;2023-02-28T05:03:01;101988.38;;;-5.31;54.08
43621;BME280;29213;50.770;7.298;2023-02-28T05:05:26;102015.75;;;-5.12;54.02
43621;BME280;29213;50.770;7.298;2023-02-28T05:07:51;102138.50;;;-4.45;54.23
43621;BME280;29213;50.770;7.298;2023-02-28T05:10:18;102123.06;;;-4.55;54.37
43621;BME280;29213;50.770;7.298;2023-02-28T05:12:44;102126.47;;;-4.51;54.83
43621;BME280;29213;50.770;7.298;2023-02-28T05:15:13;102168.63;;;-4.32;54.73
43621;BME280;29213;50.770;7.298;2023-02-28T05:17:39;102180.56;;;-4.21;54.39
43621;BME280;29213;50.770;7.298;2023-02-28T05:20:05;102004.88;;;-5.34;54.22
43621;BME280;29213;50.770;7.298;2023-02-28T05:22:31;102164.44;;;-4.41;54.12
43621;BME280;29213;50.770;7.298;2023-02-28T05:24:57;101988.66;;;-5.50;54.08
43621;BME280;29213;50.770;7.298;2023-02-28T05:27:22;102115.63;;;-4.75;54.36
43621;BME280;29213;50.770;7.298;2023-02-28T05:29:48;102114.72;;;-4.74;54.22
43621;BME280;29213;50.770;7.298;2023-02-28T05:32:13;102123.28;;;-4.67;54.17
43621;BME280;29213;50.770;7.298;2023-02-28T05:34:39;102152.66;;;-4.60;53.80
43621;BME280;29213;50.770;7.298;2023-02-28T05:37:06;101987.94;;;-5.58;53.82
43621;BME280;29213;50.770;7.298;2023-02-28T05:39:32;102106.34;;;-4.90;54.12
43621;BME280;29213;50.770;7.298;2023-02-28T05:41:58;102129.38;;;-4.68;54.07
43621;BME280;29213;50.770;7.298;2023-02-28T05:44:24;102135.47;;;-4.69;54.52
43621;BME280;29213;50.770;7.298;2023-02-28T05:46:49;102090.94;;;-5.02;54.58
43621;BME280;29213;50.770;7.298;2023-02-28T05:49:15;102125.34;;;-4.88;54.89
43621;BME280;29213;50.770;7.298;2023-02-28T05:51:40;102152.09;;;-4.78;54.36
43621;BME280;29213;50.770;7.298;2023-02-28T05:54:06;102192.44;;;-4.55;54.09
43621;BME280;29213;50.770;7.298;2023-02-28T05:56:31;102189.78;;;-4.54;54.31
43621;BME280;29213;50.770;7.298;2023-02-28T05:58:59;102184.66;;;-4.57;54.31
43621;BME280;29213;50.770;7.298;2023-02-28T06:01:37;102144.31;;;-4.81;54.34
43621;BME280;29213;50.770;7.298;2023-02-28T06:04:05;102184.69;;;-4.58;54.61
43621;BME280;29213;50.770;7.298;2023-02-28T06:06:30;102166.69;;;-4.71;54.16
43621;BME280;29213;50.770;7.298;2023-02-28T06:08:57;102010.53;;;-5.67;53.98
43621;BME280;29213;50.770;7.298;2023-02-28T06:11:22;102131.63;;;-5.01;54.33
43621;BME280;29213;50.770;7.298;2023-02-28T06:13:54;102190.88;;;-4.65;54.34
43621;BME280;29213;50.770;7.298;2023-02-28T06:16:20;102013.13;;;-5.67;54.53
43621;BME280;29213;50.770;7.298;2023-02-28T06:18:45;102122.13;;;-5.01;54.74
43621;BME280;29213;50.770;7.298;2023-02-28T06:21:12;102199.50;;;-4.63;54.59
43621;BME280;29213;50.770;7.298;2023-02-28T06:23:37;102008.09;;;-5.76;54.58
43621;BME280;29213;50.770;7.298;2023-02-28T06:26:03;102174.59;;;-4.78;55.02
43621;BME280;29213;50.770;7.298;2023-02-28T06:28:28;102151.47;;;-4.96;54.68
43621;BME280;29213;50.770;7.298;2023-02-28T06:30:54;102161.03;;;-4.96;54.42
43621;BME280;29213;50.770;7.298;2023-02-28T06:33:19;102204.91;;;-4.77;54.01
43621;BME280;29213;50.770;7.298;2023-02-28T06:35:46;102101.88;;;-5.38;54.23
43621;BME280;29213;50.770;7.298;2023-02-28T06:38:12;102201.50;;;-4.79;54.12
43621;BME280;29213;50.770;7.298;2023-02-28T06:40:37;102176.66;;;-4.99;54.18
43621;BME280;29213;50.770;7.298;2023-02-28T06:43:03;102186.09;;;-4.93;54.24
43621;BME280;29213;50.770;7.298;2023-02-28T06:45:28;102073.63;;;-5.60;54.48
43621;BME280;29213;50.770;7.298;2023-02-28T06:47:54;102224.88;;;-4.78;54.25
43621;BME280;29213;50.770;7.298;2023-02-28T06:50:20;102134.63;;;-5.28;54.90
43621;BME280;29213;50.770;7.298;2023-02-28T06:52:46;102076.22;;;-5.58;54.68
43621;BME280;29213;50.770;7.298;2023-02-28T06:55:11;102013.63;;;-6.01;54.72
43621;BME280;29213;50.770;7.298;2023-02-28T06:57:37;102040.97;;;-5.77;54.61
43621;BME280;29213;50.770;7.298;2023-02-28T07:00:08;102155.13;;;-5.06;54.48
43621;BME280;29213;50.770;7.298;2023-02-28T07:02:35;102211.72;;;-4.69;54.63
43621;BME280;29213;50.770;7.298;2023-02-28T07:05:01;102230.53;;;-4.52;54.78
43621;BME280;29213;50.770;7.298;2023-02-28T07:07:26;102033.06;;;-5.67;54.73
43621;BME280;29213;50.770;7.298;2023-02-28T07:09:52;102139.34;;;-4.97;54.74
43621;BME280;29213;50.770;7.298;2023-02-28T07:12:17;102108.38;;;-5.09;54.90
43621;BME280;29213;50.770;7.298;2023-02-28T07:14:42;102182.09;;;-4.60;55.12
43621;BME280;29213;50.770;7.298;2023-02-28T07:17:09;102236.09;;;-4.21;54.98
43621;BME280;29213;50.770;7.298;2023-02-28T07:19:37;102193.28;;;-4.55;54.56
43621;BME280;29213;50.770;7.298;2023-02-28T07:22:02;102174.59;;;-3.81;68.50
43621;BME280;29213;50.770;7.298;2023-02-28T07:24:28;102245.91;;;-1.92;70.51
43621;BME280;29213;50.770;7.298;2023-02-28T07:26:54;102177.09;;;-2.58;61.40
43621;BME280;29213;50.770;7.298;2023-02-28T07:29:20;102125.25;;;-3.08;60.68
43621;BME280;29213;50.770;7.298;2023-02-28T07:31:46;102197.44;;;-2.72;56.43
43621;BME280;29213;50.770;7.298;2023-02-28T07:34:12;102215.59;;;-2.68;55.86
43621;BME280;29213;50.770;7.298;2023-02-28T07:36:38;102204.41;;;-2.71;57.05
43621;BME280;29213;50.770;7.298;2023-02-28T07:39:03;102174.22;;;-2.82;55.52
43621;BME280;29213;50.770;7.298;2023-02-28T07:41:30;102233.03;;;-2.33;55.91
43621;BME280;29213;50.770;7.298;2023-02-28T07:43:58;102138.88;;;-2.95;54.10
43621;BME280;29213;50.770;7.298;2023-02-28T07:46:25;102172.94;;;-2.65;54.53
43621;BME280;29213;50.770;7.298;2023-02-28T07:48:51;102197.63;;;-2.44;53.56
43621;BME280;29213;50.770;7.298;2023-02-28T07:51:18;102001.56;;;-3.66;53.32
43621;BME280;29213;50.770;7.298;2023-02-28T07:53:43;102157.09;;;-2.57;53.40
43621;BME280;29213;50.770;7.298;2023-02-28T07:56:08;102237.94;;;-2.21;53.26
43621;BME280;29213;50.770;7.298;2023-02-28T07:58:36;102197.50;;;-2.39;53.26
43621;BME280;29213;50.770;7.298;2023-02-28T08:01:06;102192.94;;;-2.31;52.63
43621;BME280;29213;50.770;7.298;2023-02-28T08:03:32;102249.16;;;-1.84;52.48
43621;BME280;29213;50.770;7.298;2023-02-28T08:05:57;102253.47;;;-1.83;52.13
43621;BME280;29213;50.770;7.298;2023-02-28T08:08:22;102192.75;;;-2.23;52.23
43621;BME280;29213;50.770;7.298;2023-02-28T08:10:48;102209.97;;;-2.16;52.53
43621;BME280;29213;50.770;7.298;2023-02-28T08:13:14;102169.47;;;-2.31;52.58
43621;BME280;29213;50.770;7.298;2023-02-28T08:15:41;102198.97;;;-1.95;52.66
43621;BME280;29213;50.770;7.298;2023-02-28T08:18:07;102193.34;;;-1.80;51.47
43621;BME280;29213;50.770;7.298;2023-02-28T08:20:33;102190.94;;;-1.57;51.67
43621;BME280;29213;50.770;7.298;2023-02-28T08:22:58;102231.63;;;-1.17;51.77
43621;BME280;29213;50.770;7.298;2023-02-28T08:25:24;102138.47;;;-1.50;51.50
43621;BME280;29213;50.770;7.298;2023-02-28T08:27:51;102246.78;;;-0.71;51.10
43621;BME280;29213;50.770;7.298;2023-02-28T08:30:17;102244.56;;;-0.57;50.36
43621;BME280;29213;50.770;7.298;2023-02-28T08:32:42;102134.59;;;-1.09;47.79
43621;BME280;29213;50.770;7.298;2023-02-28T08:35:08;102184.09;;;-0.76;48.84
43621;BME280;29213;50.770;7.298;2023-02-28T08:37:34;102157.00;;;-0.73;48.97
43621;BME280;29213;50.770;7.298;2023-02-28T08:40:00;102225.00;;;-0.19;48.88
43621;BME280;29213;50.770;7.298;2023-02-28T08:42:25;102165.47;;;-0.40;47.30
43621;BME280;29213;50.770;7.298;2023-02-28T08:44:50;102235.22;;;0.14;47.18
43621;BME280;29213;50.770;7.298;2023-02-28T08:47:16;102107.41;;;-0.51;46.87
43621;BME280;29213;50.770;7.298;2023-02-28T08:49:41;102231.59;;;0.42;47.02
43621;BME280;29213;50.770;7.298;2023-02-28T08:52:07;102090.25;;;-0.34;46.26
43621;BME280;29213;50.770;7.298;2023-02-28T08:54:32;102232.50;;;0.65;45.72
43621;BME280;29213;50.770;7.298;2023-02-28T08:56:59;102166.41;;;0.33;45.37
43621;BME280;29213;50.770;7.298;2023-02-28T08:59:24;102106.16;;;0.09;45.30
43621;BME280;29213;50.770;7.298;2023-02-28T09:01:49;102192.59;;;0.80;45.39
43621;BME280;29213;50.770;7.298;2023-02-28T09:04:15;102184.81;;;0.77;44.37
43621;BME280;29213;50.770;7.298;2023-02-28T09:06:40;102220.16;;;1.13;43.32
43621;BME280;29213;50.770;7.298;2023-02-28T09:09:06;102234.38;;;1.52;45.39
43621;BME280;29213;50.770;7.298;2023-02-28T09:11:34;102140.50;;;0.93;42.33
43621;BME280;29213;50.770;7.298;2023-02-28T09:14:00;102227.94;;;1.37;41.37
43621;BME280;29213;50.770;7.298;2023-02-28T09:16:26;102165.97;;;1.12;41.69
43621;BME280;29213;50.770;7.298;2023-02-28T09:18:51;102187.69;;;1.38;40.97
43621;BME280;29213;50.770;7.298;2023-02-28T09:21:18;102190.16;;;1.41;38.54
43621;BME280;29213;50.770;7.298;2023-02-28T09:23:46;102219.41;;;1.54;39.69
43621;BME280;29213;50.770;7.298;2023-02-28T09:26:24;102226.16;;;1.81;59.24
43621;BME280;29213;50.770;7.298;2023-02-28T09:28:50;102034.13;;;1.47;38.37
43621;BME280;29213;50.770;7.298;2023-02-28T09:31:23;102182.22;;;2.05;38.34
43621;BME280;29213;50.770;7.298;2023-02-28T09:33:50;102127.88;;;1.66;37.36
43621;BME280;29213;50.770;7.298;2023-02-28T09:36:16;102213.31;;;2.35;38.67
43621;BME280;29213;50.770;7.298;2023-02-28T09:38:41;102176.88;;;2.27;37.01
43621;BME280;29213;50.770;7.298;2023-02-28T09:41:16;102204.53;;;2.36;35.38
43621;BME280;29213;50.770;7.298;2023-02-28T09:43:45;102203.66;;;2.36;35.27
43621;BME280;29213;50.770;7.298;2023-02-28T09:48:51;102185.25;;;2.36;36.23
43621;BME280;29213;50.770;7.298;2023-02-28T09:51:40;102204.44;;;2.38;34.88
43621;BME280;29213;50.770;7.298;2023-02-28T09:54:18;102150.06;;;1.98;34.47
43621;BME280;29213;50.770;7.298;2023-02-28T09:56:48;102136.00;;;1.80;34.67
43621;BME280;29213;50.770;7.298;2023-02-28T09:59:44;102198.38;;;1.96;33.36
43621;BME280;29213;50.770;7.298;2023-02-28T10:02:45;102154.06;;;1.67;33.70
43621;BME280;29213;50.770;7.298;2023-02-28T10:05:14;102141.66;;;1.71;33.84
43621;BME280;29213;50.770;7.298;2023-02-28T10:07:56;102199.63;;;2.08;32.83
43621;BME280;29213;50.770;7.298;2023-02-28T10:10:49;102113.47;;;1.54;34.04
43621;BME280;29213;50.770;7.298;2023-02-28T10:13:33;102196.78;;;2.12;32.79
43621;BME280;29213;50.770;7.298;2023-02-28T10:21:59;102190.81;;;2.09;32.66
43621;BME280;29213;50.770;7.298;2023-02-28T10:24:30;102134.41;;;1.76;32.69
43621;BME280;29213;50.770;7.298;2023-02-28T10:27:06;102133.16;;;2.06;33.11
43621;BME280;29213;50.770;7.298;2023-02-28T10:29:43;102189.94;;;2.48;31.71
43621;BME280;29213;50.770;7.298;2023-02-28T10:32:11;102162.63;;;2.32;31.65
43621;BME280;29213;50.770;7.298;2023-02-28T10:34:37;102118.88;;;2.11;30.94
43621;BME280;29213;50.770;7.298;2023-02-28T10:37:03;102119.53;;;1.96;31.66
43621;BME280;29213;50.770;7.298;2023-02-28T10:39:41;102182.63;;;2.36;31.88
43621;BME280;29213;50.770;7.298;2023-02-28T10:42:21;102175.16;;;2.46;32.87
43621;BME280;29213;50.770;7.298;2023-02-28T10:44:47;102180.06;;;2.53;32.02
43621;BME280;29213;50.770;7.298;2023-02-28T10:47:16;102147.66;;;2.53;31.39
43621;BME280;29213;50.770;7.298;2023-02-28T10:49:48;102106.56;;;2.50;31.41
43621;BME280;29213;50.770;7.298;2023-02-28T10:52:40;102099.66;;;2.67;34.85
43621;BME280;29213;50.770;7.298;2023-02-28T10:55:24;102159.94;;;3.44;30.92
43621;BME280;29213;50.770;7.298;2023-02-28T10:57:51;102143.06;;;3.30;31.36
43621;BME280;29213;50.770;7.298;2023-02-28T11:00:20;102110.38;;;3.17;30.02
43621;BME280;29213;50.770;7.298;2023-02-28T11:02:47;102168.34;;;3.68;30.71
43621;BME280;29213;50.770;7.298;2023-02-28T11:05:33;102105.13;;;3.68;31.02
43621;BME280;29213;50.770;7.298;2023-02-28T11:08:06;102110.19;;;4.05;33.31
43621;BME280;29213;50.770;7.298;2023-02-28T11:10:33;102020.13;;;3.81;31.20
43621;BME280;29213;50.770;7.298;2023-02-28T11:13:02;102167.78;;;4.63;28.78
43621;BME280;29213;50.770;7.298;2023-02-28T11:15:37;102167.28;;;4.56;28.61
43621;BME280;29213;50.770;7.298;2023-02-28T11:21:03;102161.31;;;4.85;29.47
43621;BME280;29213;50.770;7.298;2023-02-28T11:23:30;102167.94;;;4.92;28.88
43621;BME280;29213;50.770;7.298;2023-02-28T11:26:00;102157.06;;;4.82;28.12
43621;BME280;29213;50.770;7.298;2023-02-28T11:28:31;102150.91;;;4.81;28.55
43621;BME280;29213;50.770;7.298;2023-02-28T11:31:08;102079.00;;;4.29;28.26
43621;BME280;29213;50.770;7.298;2023-02-28T11:33:43;102148.03;;;4.70;27.96
43621;BME280;29213;50.770;7.298;2023-02-28T11:36:30;102143.03;;;4.65;27.61
43621;BME280;29213;50.770;7.298;2023-02-28T11:39:00;102148.38;;;4.64;27.60
43621;BME280;29213;50.770;7.298;2023-02-28T11:47:42;102143.78;;;5.45;28.04
43621;BME280;29213;50.770;7.298;2023-02-28T11:50:16;102148.06;;;5.31;27.29
43621;BME280;29213;50.770;7.298;2023-02-28T11:52:55;102148.41;;;5.41;27.78
43621;BME280;29213;50.770;7.298;2023-02-28T12:06:40;102053.13;;;4.52;27.08
43621;BME280;29213;50.770;7.298;2023-02-28T12:09:38;102062.44;;;4.90;27.28
43621;BME280;29213;50.770;7.298;2023-02-28T12:12:29;102097.84;;;5.17;27.63
43621;BME280;29213;50.770;7.298;2023-02-28T12:15:28;102090.53;;;4.91;27.40
43621;BME280;29213;50.770;7.298;2023-02-28T12:21:05;102128.50;;;5.65;28.13
43621;BME280;29213;50.770;7.298;2023-02-28T12:23:55;102122.81;;;5.71;27.39
43621;BME280;29213;50.770;7.298;2023-02-28T12:26:34;102054.38;;;5.52;27.96
43621;BME280;29213;50.770;7.298;2023-02-28T12:29:17;102121.50;;;6.07;28.17
43621;BME280;29213;50.770;7.298;2023-02-28T12:32:12;102120.09;;;5.72;26.96
43621;BME280;29213;50.770;7.298;2023-02-28T12:34:42;102117.16;;;5.48;27.18
43621;BME280;29213;50.770;7.298;2023-02-28T12:37:21;102049.22;;;4.90;27.33
43621;BME280;29213;50.770;7.298;2023-02-28T12:39:53;102099.06;;;5.11;27.90
43621;BME280;29213;50.770;7.298;2023-02-28T12:43:02;102111.50;;;5.54;28.33
43621;BME280;29213;50.770;7.298;2023-02-28T12:48:04;102104.81;;;5.78;27.06
43621;BME280;29213;50.770;7.298;2023-02-28T12:50:32;102112.63;;;5.50;26.97
43621;BME280;29213;50.770;7.298;2023-02-28T12:55:53;102099.72;;;6.46;32.45
43621;BME280;29213;50.770;7.298;2023-02-28T12:58:39;102041.50;;;6.86;32.78
43621;BME280;29213;50.770;7.298;2023-02-28T13:01:36;102076.94;;;7.37;27.23
43621;BME280;29213;50.770;7.298;2023-02-28T13:07:10;102078.81;;;7.09;26.76
43621;BME280;29213;50.770;7.298;2023-02-28T13:09:52;102057.50;;;6.98;26.33
43621;BME280;29213;50.770;7.298;2023-02-28T13:12:19;102059.53;;;7.07;26.47
43621;BME280;29213;50.770;7.298;2023-02-28T13:14:46;102009.16;;;6.68;25.67
43621;BME280;29213;50.770;7.298;2023-02-28T13:17:13;102073.94;;;7.42;26.36
43621;BME280;29213;50.770;7.298;2023-02-28T13:19:44;102076.03;;;8.01;25.15
43621;BME280;29213;50.770;7.298;2023-02-28T13:22:38;102066.72;;;8.33;24.75
43621;BME280;29213;50.770;7.298;2023-02-28T13:27:48;102016.94;;;8.24;24.33
43621;BME280;29213;50.770;7.298;2023-02-28T13:33:31;102017.47;;;7.28;24.72
43621;BME280;29213;50.770;7.298;2023-02-28T13:38:40;102069.63;;;7.54;25.40
43621;BME280;29213;50.770;7.298;2023-02-28T13:46:35;102001.72;;;8.01;24.51
43621;BME280;29213;50.770;7.298;2023-02-28T13:49:40;102054.56;;;7.28;25.26
43621;BME280;29213;50.770;7.298;2023-02-28T13:57:42;102034.66;;;7.86;24.59
43621;BME280;29213;50.770;7.298;2023-02-28T14:00:23;101987.94;;;7.96;27.43
43621;BME280;29213;50.770;7.298;2023-02-28T14:03:26;102052.22;;;8.62;24.80
43621;BME280;29213;50.770;7.298;2023-02-28T14:09:27;102037.81;;;9.47;24.49
43621;BME280;29213;50.770;7.298;2023-02-28T14:11:54;101994.00;;;8.94;23.40
43621;BME280;29213;50.770;7.298;2023-02-28T14:17:02;102048.19;;;8.45;24.72
43621;BME280;29213;50.770;7.298;2023-02-28T14:19:30;101988.25;;;7.92;24.86
43621;BME280;29213;50.770;7.298;2023-02-28T14:25:09;102038.13;;;7.10;25.72
43621;BME280;29213;50.770;7.298;2023-02-28T14:27:47;101986.88;;;6.58;25.95
43621;BME280;29213;50.770;7.298;2023-02-28T14:30:43;102038.09;;;6.84;26.88
43621;BME280;29213;50.770;7.298;2023-02-28T14:33:56;102001.41;;;6.37;26.74
43621;BME280;29213;50.770;7.298;2023-02-28T14:36:32;102025.78;;;6.70;26.67
43621;BME280;29213;50.770;7.298;2023-02-28T14:39:04;101951.41;;;6.60;27.04
43621;BME280;29213;50.770;7.298;2023-02-28T14:41:33;102027.00;;;7.05;26.54
43621;BME280;29213;50.770;7.298;2023-02-28T14:44:24;102024.97;;;7.34;26.55
43621;BME280;29213;50.770;7.298;2023-02-28T14:46:56;102024.19;;;7.58;26.36
43621;BME280;29213;50.770;7.298;2023-02-28T14:49:26;101984.06;;;7.39;26.25
43621;BME280;29213;50.770;7.298;2023-02-28T14:52:15;102024.53;;;7.54;25.38